createdAt,value
2018-09-11T00:02:16.588Z,101000.40
2018-09-11T00:04:45.303Z,100993.59
2018-09-11T00:07:13.866Z,100996.59
2018-09-11T00:09:42.518Z,101002.66
2018-09-11T00:12:11.034Z,101000.53
2018-09-11T00:14:39.576Z,101002.20
2018-09-11T00:17:08.127Z,101014.18
2018-09-11T00:19:36.678Z,101018.42
2018-09-11T00:22:05.290Z,101012.38
2018-09-11T00:24:33.842Z,101011.59
2018-09-11T00:27:02.321Z,101011.59
2018-09-11T00:29:30.857Z,101008.95
2018-09-11T00:32:00.972Z,100997.80
2018-09-11T00:34:29.623Z,100999.05
2018-09-11T00:36:58.612Z,100996.05
2018-09-11T00:39:27.200Z,101000.34
2018-09-11T00:41:55.859Z,100999.19
2018-09-11T00:44:24.398Z,100991.84
2018-09-11T00:46:53.200Z,100988.83
2018-09-11T00:49:21.707Z,100984.16
2018-09-11T00:51:50.281Z,100978.56
2018-09-11T00:54:18.926Z,100978.06
2018-09-11T00:56:47.562Z,100974.73
2018-09-11T00:59:16.092Z,100971.81
2018-09-11T01:01:44.717Z,100967.14
2018-09-11T01:04:13.207Z,100964.55
2018-09-11T01:06:41.752Z,100958.55
2018-09-11T01:09:10.986Z,100954.20
2018-09-11T01:11:40.185Z,100956.74
2018-09-11T01:14:11.640Z,100962.80
2018-09-11T01:16:40.226Z,100963.72
2018-09-11T01:19:08.693Z,100961.97
2018-09-11T01:21:37.179Z,100953.41
2018-09-11T01:24:05.702Z,100947.35
2018-09-11T01:26:34.199Z,100946.66
2018-09-11T01:29:03.792Z,100949.25
2018-09-11T01:31:32.319Z,100943.19
2018-09-11T01:34:00.830Z,100940.14
2018-09-11T01:36:29.447Z,100945.78
2018-09-11T01:38:57.910Z,100939.77
2018-09-11T01:41:26.511Z,100936.77
2018-09-11T01:43:55.399Z,100933.44
2018-09-11T01:46:23.983Z,100934.23
2018-09-11T01:48:52.544Z,100929.97
2018-09-11T01:51:21.848Z,100929.56
2018-09-11T01:53:51.016Z,100927.75
2018-09-11T01:56:19.606Z,100929.05
2018-09-11T01:58:48.221Z,100931.27
2018-09-11T02:01:16.743Z,100927.75
2018-09-11T02:03:45.392Z,100924.28
2018-09-11T02:06:14.104Z,100933.72
2018-09-11T02:08:42.556Z,100930.20
2018-09-11T02:11:11.089Z,100921.05
2018-09-11T02:13:39.722Z,100924.05
2018-09-11T02:16:08.258Z,100926.19
2018-09-11T02:18:36.909Z,100920.55
2018-09-11T02:21:06.651Z,100925.67
2018-09-11T02:23:35.771Z,100933.39
2018-09-11T02:26:04.335Z,100936.77
2018-09-11T02:28:32.805Z,100932.42
2018-09-11T02:31:01.276Z,100936.63
2018-09-11T02:33:29.732Z,100936.63
2018-09-11T02:35:58.941Z,100934.88
2018-09-11T02:38:28.137Z,100937.04
2018-09-11T02:40:56.769Z,100936.50
2018-09-11T02:43:29.296Z,100935.52
2018-09-11T02:45:58.027Z,100938.33
2018-09-11T02:48:26.584Z,100943.38
2018-09-11T02:50:55.092Z,100944.52
2018-09-11T02:53:24.187Z,100949.50
2018-09-11T02:55:52.667Z,100942.11
2018-09-11T02:58:21.121Z,100947.61
2018-09-11T03:00:49.726Z,100945.94
2018-09-11T03:03:18.284Z,100941.03
2018-09-11T03:05:46.960Z,100934.93
2018-09-11T03:08:15.470Z,100935.85
2018-09-11T03:10:44.028Z,100939.60
2018-09-11T03:13:12.581Z,100938.30
2018-09-11T03:15:41.025Z,100935.85
2018-09-11T03:18:09.566Z,100942.70
2018-09-11T03:20:38.169Z,100950.38
2018-09-11T03:23:06.707Z,100953.98
2018-09-11T03:25:35.153Z,100952.69
2018-09-11T03:28:03.794Z,100952.18
2018-09-11T03:30:32.377Z,100956.68
2018-09-11T03:33:00.827Z,100951.91
2018-09-11T03:35:29.326Z,100955.80
2018-09-11T03:37:57.871Z,100956.30
2018-09-11T03:40:26.433Z,100955.89
2018-09-11T03:42:55.018Z,100956.30
2018-09-11T03:45:26.329Z,100963.42
2018-09-11T03:47:55.425Z,100963.34
2018-09-11T03:50:24.641Z,100963.66
2018-09-11T03:52:53.932Z,100971.53
2018-09-11T03:55:25.291Z,100969.02
2018-09-11T03:57:53.756Z,100967.78
2018-09-11T04:00:22.269Z,100965.77
2018-09-11T04:02:50.847Z,100971.91
2018-09-11T04:05:19.432Z,100971.91
2018-09-11T04:07:47.896Z,100972.05
2018-09-11T04:10:16.433Z,100971.59
2018-09-11T04:12:44.880Z,100972.87
2018-09-11T04:15:14.070Z,100974.73
2018-09-11T04:17:42.890Z,100975.23
2018-09-11T04:20:11.371Z,100974.03
2018-09-11T04:22:40.314Z,100974.99
2018-09-11T04:25:09.204Z,100974.25
2018-09-11T04:27:37.885Z,100968.23
2018-09-11T04:30:06.543Z,100963.20
2018-09-11T04:32:35.126Z,100964.50
2018-09-11T04:35:03.799Z,100968.52
2018-09-11T04:37:32.440Z,100965.27
2018-09-11T04:40:00.946Z,100965.27
2018-09-11T04:42:29.507Z,100965.31
2018-09-11T04:44:58.147Z,100962.39
2018-09-11T04:47:26.768Z,100957.03
2018-09-11T04:49:55.523Z,100957.03
2018-09-11T04:52:24.003Z,100952.77
2018-09-11T04:54:52.663Z,100948.61
2018-09-11T04:57:21.214Z,100947.69
2018-09-11T04:59:49.821Z,100943.89
2018-09-11T05:02:18.259Z,100942.59
2018-09-11T05:04:46.700Z,100937.47
2018-09-11T05:07:15.171Z,100933.59
2018-09-11T05:09:43.629Z,100934.09
2018-09-11T05:12:13.187Z,100931.79
2018-09-11T05:14:41.641Z,100929.66
2018-09-11T05:17:10.157Z,100933.92
2018-09-11T05:19:38.711Z,100927.07
2018-09-11T05:22:07.259Z,100926.56
2018-09-11T05:24:35.725Z,100928.19
2018-09-11T05:27:04.218Z,100932.73
2018-09-11T05:29:32.715Z,100920.20
2018-09-11T05:32:01.148Z,100920.86
2018-09-11T05:34:29.923Z,100925.34
2018-09-11T05:36:58.457Z,100924.80
2018-09-11T05:39:26.934Z,100926.92
2018-09-11T05:41:55.416Z,100911.30
2018-09-11T05:44:24.308Z,100919.44
2018-09-11T05:46:53.736Z,100920.88
2018-09-11T05:49:22.290Z,100922.44
2018-09-11T05:51:51.507Z,100920.86
2018-09-11T05:54:19.982Z,100928.02
2018-09-11T05:56:48.441Z,100917.09
2018-09-11T05:59:16.843Z,100923.89
2018-09-11T06:01:45.564Z,100918.25
2018-09-11T06:04:14.040Z,100910.84
2018-09-11T06:06:42.516Z,100913.30
2018-09-11T06:09:12.620Z,100916.98
2018-09-11T06:11:41.261Z,100911.34
2018-09-11T06:14:09.942Z,100921.20
2018-09-11T06:16:38.455Z,100934.05
2018-09-11T06:19:07.114Z,100934.05
2018-09-11T06:21:35.550Z,100931.27
2018-09-11T06:24:03.978Z,100931.08
2018-09-11T06:26:32.369Z,100929.31
2018-09-11T06:29:01.287Z,100928.53
2018-09-11T06:31:29.698Z,100922.73
2018-09-11T06:33:58.105Z,100922.75
2018-09-11T06:36:27.200Z,100916.72
2018-09-11T06:38:56.478Z,100922.23
2018-09-11T06:41:24.916Z,100921.13
2018-09-11T06:43:53.396Z,100924.64
2018-09-11T06:46:21.815Z,100928.27
2018-09-11T06:48:50.224Z,100929.36
2018-09-11T06:51:18.653Z,100926.59
2018-09-11T06:53:47.048Z,100922.65
2018-09-11T06:56:15.526Z,100917.41
2018-09-11T06:58:44.051Z,100919.75
2018-09-11T07:01:12.437Z,100913.81
2018-09-11T07:03:40.899Z,100911.53
2018-09-11T07:06:10.039Z,100914.91
2018-09-11T07:08:38.803Z,100913.91
2018-09-11T07:11:07.705Z,100907.17
2018-09-11T07:13:36.493Z,100914.11
2018-09-11T07:16:05.008Z,100912.69
2018-09-11T07:18:34.429Z,100922.77
2018-09-11T07:21:02.948Z,100916.56
2018-09-11T07:23:31.878Z,100935.84
2018-09-11T07:26:01.603Z,100925.98
2018-09-11T07:28:30.178Z,100927.22
2018-09-11T07:30:58.760Z,100937.40
2018-09-11T07:33:27.259Z,100936.99
2018-09-11T07:35:56.011Z,100918.97
2018-09-11T07:38:25.028Z,100925.87
2018-09-11T07:40:54.112Z,100926.16
2018-09-11T07:43:23.242Z,100931.63
2018-09-11T07:45:52.297Z,100928.03
2018-09-11T07:48:20.739Z,100918.73
2018-09-11T07:50:49.266Z,100919.75
2018-09-11T07:53:17.756Z,100918.11
2018-09-11T07:55:46.217Z,100920.04
2018-09-11T07:58:14.706Z,100925.29
2018-09-11T08:00:43.571Z,100924.36
2018-09-11T08:03:12.244Z,100936.51
2018-09-11T08:05:42.349Z,100926.61
2018-09-11T08:08:10.900Z,100919.42
2018-09-11T08:10:39.431Z,100919.01
2018-09-11T08:13:08.017Z,100923.17
2018-09-11T08:15:36.556Z,100921.54
2018-09-11T08:18:05.455Z,100916.38
2018-09-11T08:20:34.007Z,100924.97
2018-09-11T08:23:03.659Z,100917.94
2018-09-11T08:25:32.247Z,100923.11
2018-09-11T08:28:01.847Z,100918.41
2018-09-11T08:30:32.576Z,100918.03
2018-09-11T08:33:02.052Z,100932.66
2018-09-11T08:35:30.736Z,100930.30
2018-09-11T08:37:59.446Z,100938.71
2018-09-11T08:40:28.588Z,100937.80
2018-09-11T08:42:57.027Z,100941.36
2018-09-11T08:45:25.538Z,100942.08
2018-09-11T08:47:54.062Z,100943.69
2018-09-11T08:50:22.520Z,100929.78
2018-09-11T08:52:51.064Z,100930.50
2018-09-11T08:55:19.817Z,100930.70
2018-09-11T08:57:48.405Z,100926.95
2018-09-11T09:00:17.140Z,100922.17
2018-09-11T09:02:45.861Z,100923.83
2018-09-11T09:05:14.416Z,100928.34
2018-09-11T09:07:43.032Z,100929.79
2018-09-11T09:10:11.587Z,100926.52
2018-09-11T09:12:40.062Z,100919.17
2018-09-11T09:15:08.744Z,100923.88
2018-09-11T09:17:37.379Z,100924.81
2018-09-11T09:20:06.014Z,100922.29
2018-09-11T09:22:34.550Z,100935.17
2018-09-11T09:25:03.143Z,100932.92
2018-09-11T09:27:32.452Z,100929.31
2018-09-11T09:30:01.017Z,100925.20
2018-09-11T09:32:29.689Z,100917.93
2018-09-11T09:34:58.180Z,100925.51
2018-09-11T09:37:27.585Z,100923.81
2018-09-11T09:39:56.130Z,100920.79
2018-09-11T09:42:24.752Z,100924.34
2018-09-11T09:44:53.366Z,100916.16
2018-09-11T09:47:21.891Z,100907.58
2018-09-11T09:49:50.704Z,100903.99
2018-09-11T09:52:19.287Z,100909.91
2018-09-11T09:54:47.830Z,100919.88
2018-09-11T09:57:16.311Z,100924.90
2018-09-11T09:59:44.857Z,100926.41
2018-09-11T10:02:18.642Z,100911.22
2018-09-11T10:04:47.295Z,100926.76
2018-09-11T10:07:15.842Z,100930.78
2018-09-11T10:09:44.287Z,100934.62
2018-09-11T10:12:12.897Z,100936.20
2018-09-11T10:14:42.131Z,100939.11
2018-09-11T10:17:11.971Z,100926.81
2018-09-11T10:19:40.702Z,100923.67
2018-09-11T10:22:09.628Z,100919.83
2018-09-11T10:24:38.023Z,100923.24
2018-09-11T10:27:06.608Z,100919.60
2018-09-11T10:29:35.543Z,100915.59
2018-09-11T10:32:05.312Z,100923.50
2018-09-11T10:34:35.115Z,100918.32
2018-09-11T10:37:03.698Z,100923.02
2018-09-11T10:39:32.268Z,100920.55
2018-09-11T10:42:00.748Z,100914.52
2018-09-11T10:44:29.555Z,100913.78
2018-09-11T10:46:58.495Z,100906.35
2018-09-11T10:49:26.971Z,100910.88
2018-09-11T10:51:55.494Z,100906.17
2018-09-11T10:54:24.020Z,100902.98
2018-09-11T10:56:52.740Z,100899.89
2018-09-11T10:59:21.344Z,100899.75
2018-09-11T11:01:50.231Z,100885.77
2018-09-11T11:04:19.067Z,100894.81
2018-09-11T11:06:48.518Z,100897.08
2018-09-11T11:09:17.052Z,100874.06
2018-09-11T11:11:45.707Z,100867.52
2018-09-11T11:14:14.441Z,100865.29
2018-09-11T11:16:43.500Z,100870.95
2018-09-11T11:19:11.991Z,100869.55
2018-09-11T11:21:41.348Z,100868.02
2018-09-11T11:24:10.051Z,100872.23
2018-09-11T11:26:38.748Z,100871.31
2018-09-11T11:29:07.336Z,100869.91
2018-09-11T11:31:35.885Z,100867.25
2018-09-11T11:34:04.569Z,100863.00
2018-09-11T11:36:33.215Z,100853.91
2018-09-11T11:39:01.999Z,100856.98
2018-09-11T11:41:30.644Z,100871.84
2018-09-11T11:43:59.230Z,100871.77
2018-09-11T11:46:28.251Z,100878.39
2018-09-11T11:48:56.916Z,100871.39
2018-09-11T11:51:25.789Z,100864.45
2018-09-11T11:53:54.373Z,100870.59
2018-09-11T11:56:22.916Z,100875.91
2018-09-11T11:58:51.415Z,100874.84
2018-09-11T12:01:20.203Z,100871.20
2018-09-11T12:03:48.828Z,100872.37
2018-09-11T12:06:17.364Z,100866.26
2018-09-11T12:08:45.971Z,100854.99
2018-09-11T12:11:14.615Z,100844.66
2018-09-11T12:13:43.319Z,100843.39
2018-09-11T12:16:11.938Z,100842.46
2018-09-11T12:18:40.356Z,100831.05
2018-09-11T12:21:08.897Z,100834.91
2018-09-11T12:23:37.596Z,100835.39
2018-09-11T12:26:06.313Z,100849.70
2018-09-11T12:28:34.904Z,100850.09
2018-09-11T12:31:03.510Z,100843.84
2018-09-11T12:33:32.139Z,100835.22
2018-09-11T12:36:00.776Z,100830.11
2018-09-11T12:38:29.441Z,100821.28
2018-09-11T12:40:57.937Z,100825.73
2018-09-11T12:43:26.627Z,100823.59
2018-09-11T12:45:56.336Z,100814.55
2018-09-11T12:48:25.632Z,100823.99
2018-09-11T12:50:54.095Z,100830.69
2018-09-11T12:53:23.255Z,100836.97
2018-09-11T12:55:51.872Z,100817.06
2018-09-11T12:58:20.394Z,100818.08
2018-09-11T13:00:49.272Z,100825.11
2018-09-11T13:03:17.754Z,100822.02
2018-09-11T13:05:46.333Z,100811.95
2018-09-11T13:08:34.566Z,100818.08
2018-09-11T13:11:03.074Z,100818.11
2018-09-11T13:13:31.820Z,100823.26
2018-09-11T13:16:00.331Z,100819.54
2018-09-11T13:18:29.112Z,100820.95
2018-09-11T13:20:57.629Z,100819.64
2018-09-11T13:23:26.154Z,100814.30
2018-09-11T13:25:55.177Z,100809.63
2018-09-11T13:28:23.739Z,100816.69
2018-09-11T13:30:52.963Z,100813.70
2018-09-11T13:33:21.821Z,100813.36
2018-09-11T13:35:50.309Z,100812.05
2018-09-11T13:38:18.850Z,100807.03
2018-09-11T13:40:47.394Z,100810.24
2018-09-11T13:43:15.877Z,100803.36
2018-09-11T13:45:44.507Z,100819.68
2018-09-11T13:48:12.975Z,100812.77
2018-09-11T13:50:41.723Z,100808.09
2018-09-11T13:53:10.356Z,100814.09
2018-09-11T13:55:39.301Z,100802.85
2018-09-11T13:58:07.943Z,100786.67
2018-09-11T14:00:37.436Z,100793.53
2018-09-11T14:03:07.056Z,100792.25
2018-09-11T14:05:35.619Z,100809.91
2018-09-11T14:08:04.116Z,100798.93
2018-09-11T14:10:32.542Z,100792.25
2018-09-11T14:13:01.056Z,100796.05
2018-09-11T14:15:29.615Z,100790.34
2018-09-11T14:17:58.171Z,100788.54
2018-09-11T14:20:26.738Z,100789.73
2018-09-11T14:22:55.155Z,100790.19
2018-09-11T14:25:23.845Z,100792.36
2018-09-11T14:27:52.357Z,100784.36
2018-09-11T14:30:20.929Z,100784.73
2018-09-11T14:32:56.141Z,100782.09
2018-09-11T14:35:24.587Z,100783.17
2018-09-11T14:37:53.108Z,100778.39
2018-09-11T14:40:21.620Z,100780.66
2018-09-11T14:42:50.095Z,100771.59
2018-09-11T14:45:18.664Z,100764.91
2018-09-11T14:47:47.890Z,100774.70
2018-09-11T14:50:16.628Z,100773.63
2018-09-11T14:52:45.472Z,100777.94
2018-09-11T14:55:13.979Z,100778.28
2018-09-11T14:57:42.501Z,100781.03
2018-09-11T15:00:11.245Z,100782.95
2018-09-11T15:02:40.254Z,100780.33
2018-09-11T15:05:08.978Z,100786.29
2018-09-11T15:07:37.576Z,100785.66
2018-09-11T15:10:06.275Z,100785.55
2018-09-11T15:12:34.994Z,100781.12
2018-09-11T15:15:03.550Z,100781.98
2018-09-11T15:17:32.347Z,100777.58
2018-09-11T15:20:00.985Z,100788.41
2018-09-11T15:22:32.398Z,100779.59
2018-09-11T15:25:03.766Z,100781.98
2018-09-11T15:27:32.484Z,100791.05
2018-09-11T15:30:01.660Z,100787.81
2018-09-11T15:32:30.495Z,100786.73
2018-09-11T15:34:59.195Z,100782.47
2018-09-11T15:37:27.733Z,100783.52
2018-09-11T15:39:56.241Z,100788.64
2018-09-11T15:42:24.974Z,100791.77
2018-09-11T15:44:53.918Z,100787.70
2018-09-11T15:47:22.552Z,100785.08
2018-09-11T15:49:51.103Z,100786.73
2018-09-11T15:52:19.552Z,100781.48
2018-09-11T15:54:48.098Z,100783.88
2018-09-11T15:57:16.639Z,100791.98
2018-09-11T15:59:45.166Z,100779.83
2018-09-11T16:02:14.160Z,100780.28
2018-09-11T16:04:42.761Z,100781.95
2018-09-11T16:07:11.761Z,100778.14
2018-09-11T16:09:40.252Z,100774.58
2018-09-11T16:12:08.816Z,100771.23
2018-09-11T16:14:37.733Z,100780.30
2018-09-11T16:17:06.212Z,100777.08
2018-09-11T16:19:34.858Z,100775.05
2018-09-11T16:22:04.012Z,100776.22
2018-09-11T16:24:32.778Z,100777.31
2018-09-11T16:27:02.217Z,100780.15
2018-09-11T16:29:30.740Z,100776.89
2018-09-11T16:31:59.317Z,100774.86
2018-09-11T16:34:27.878Z,100779.48
2018-09-11T16:36:56.363Z,100776.86
2018-09-11T16:39:24.983Z,100771.36
2018-09-11T16:41:53.516Z,100773.39
2018-09-11T16:44:22.003Z,100769.22
2018-09-11T16:46:50.420Z,100766.59
2018-09-11T16:49:19.199Z,100765.02
2018-09-11T16:51:47.789Z,100761.44
2018-09-11T16:54:16.316Z,100765.48
2018-09-11T16:56:44.859Z,100769.75
2018-09-11T16:59:13.920Z,100767.93
2018-09-11T17:01:43.343Z,100766.75
2018-09-11T17:04:12.962Z,100763.62
2018-09-11T17:06:41.441Z,100760.62
2018-09-11T17:09:11.166Z,100760.72
2018-09-11T17:11:40.244Z,100761.75
2018-09-11T17:14:08.735Z,100761.02
2018-09-11T17:16:37.250Z,100757.09
2018-09-11T17:19:05.902Z,100766.13
2018-09-11T17:21:34.634Z,100758.70
2018-09-11T17:24:03.209Z,100761.80
2018-09-11T17:26:31.719Z,100759.63
2018-09-11T17:29:01.095Z,100753.08
2018-09-11T17:31:29.720Z,100756.03
2018-09-11T17:33:58.375Z,100757.63
2018-09-11T17:36:26.980Z,100752.94
2018-09-11T17:38:55.654Z,100749.44
2018-09-11T17:41:24.139Z,100753.70
2018-09-11T17:43:52.615Z,100749.05
2018-09-11T17:46:21.293Z,100744.28
2018-09-11T17:48:51.505Z,100746.80
2018-09-11T17:51:20.313Z,100737.16
2018-09-11T17:53:49.680Z,100742.40
2018-09-11T17:56:18.192Z,100744.33
2018-09-11T17:58:46.681Z,100750.75
2018-09-11T18:01:15.148Z,100751.81
2018-09-11T18:03:43.621Z,100761.22
2018-09-11T18:06:12.151Z,100764.70
2018-09-11T18:08:40.501Z,100765.63
2018-09-11T18:11:08.977Z,100763.39
2018-09-11T18:13:37.404Z,100767.91
2018-09-11T18:16:05.927Z,100773.98
2018-09-11T18:18:34.431Z,100781.83
2018-09-11T18:21:02.982Z,100782.56
2018-09-11T18:23:33.029Z,100785.77
2018-09-11T18:26:02.324Z,100793.27
2018-09-11T18:28:31.279Z,100788.52
2018-09-11T18:31:00.244Z,100788.94
2018-09-11T18:33:28.948Z,100795.43
2018-09-11T18:35:58.031Z,100802.36
2018-09-11T18:38:26.750Z,100810.41
2018-09-11T18:40:55.530Z,100814.08
2018-09-11T18:43:24.007Z,100816.35
2018-09-11T18:45:52.555Z,100815.02
2018-09-11T18:48:22.041Z,100815.84
2018-09-11T18:50:51.322Z,100823.22
2018-09-11T18:53:21.508Z,100826.79
2018-09-11T18:55:54.393Z,100827.05
2018-09-11T18:58:42.536Z,100821.17
2018-09-11T19:01:11.863Z,100823.44
2018-09-11T19:03:42.381Z,100826.41
2018-09-11T19:06:33.657Z,100830.36
2018-09-11T19:09:14.448Z,100827.72
2018-09-11T19:11:57.998Z,100832.44
2018-09-11T19:14:26.562Z,100836.14
2018-09-11T19:16:55.460Z,100834.00
2018-09-11T19:19:23.936Z,100842.45
2018-09-11T19:21:52.443Z,100837.09
2018-09-11T19:24:21.003Z,100840.31
2018-09-11T19:26:49.531Z,100838.02
2018-09-11T19:29:19.106Z,100843.23
2018-09-11T19:31:48.158Z,100849.45
2018-09-11T19:34:21.866Z,100851.52
2018-09-11T19:36:50.664Z,100848.55
2018-09-11T19:39:19.048Z,100850.37
2018-09-11T19:41:47.517Z,100850.20
2018-09-11T19:44:16.027Z,100850.91
2018-09-11T19:46:45.024Z,100850.42
2018-09-11T19:49:13.477Z,100848.22
2018-09-11T19:51:41.993Z,100850.41
2018-09-11T19:54:11.762Z,100848.02
2018-09-11T19:56:40.229Z,100850.91
2018-09-11T19:59:08.787Z,100855.78
2018-09-11T20:01:37.805Z,100855.88
2018-09-11T20:04:06.824Z,100855.52
2018-09-11T20:06:35.292Z,100856.70
2018-09-11T20:09:04.924Z,100855.70
2018-09-11T20:11:33.613Z,100854.61
2018-09-11T20:16:54.955Z,100848.17
2018-09-11T20:19:23.702Z,100844.52
2018-09-11T20:21:52.468Z,100844.17
2018-09-11T20:24:21.083Z,100845.92
2018-09-11T20:26:50.269Z,100843.75
2018-09-11T20:29:18.846Z,100845.31
2018-09-11T20:31:47.336Z,100839.09
2018-09-11T20:34:16.157Z,100844.36
2018-09-11T20:36:44.665Z,100844.14
2018-09-11T20:39:13.686Z,100841.83
2018-09-11T20:41:42.215Z,100839.52
2018-09-11T20:44:11.513Z,100833.91
2018-09-11T20:46:40.061Z,100829.11
2018-09-11T20:49:08.523Z,100828.55
2018-09-11T20:51:37.016Z,100824.92
2018-09-11T20:54:05.519Z,100820.74
2018-09-11T20:56:34.364Z,100819.73
2018-09-11T20:59:02.819Z,100817.60
2018-09-11T21:01:31.354Z,100816.02
2018-09-11T21:03:59.752Z,100815.28
2018-09-11T21:06:28.452Z,100816.33
2018-09-11T21:08:56.970Z,100816.20
2018-09-11T21:11:25.504Z,100817.88
2018-09-11T21:13:53.990Z,100816.98
2018-09-11T21:16:23.047Z,100819.30
2018-09-11T21:18:52.129Z,100822.11
2018-09-11T21:21:20.741Z,100819.41
2018-09-11T21:26:20.318Z,100825.95
2018-09-11T21:28:49.116Z,100814.94
2018-09-11T21:31:32.636Z,100822.88
2018-09-11T21:34:01.210Z,100821.75
2018-09-11T21:36:30.266Z,100825.75
2018-09-11T21:38:59.573Z,100824.84
2018-09-11T21:41:28.075Z,100823.23
2018-09-11T21:43:56.583Z,100819.13
2018-09-11T21:46:25.177Z,100820.16
2018-09-11T21:48:53.705Z,100815.61
2018-09-11T21:51:22.231Z,100819.03
2018-09-11T21:53:50.722Z,100821.48
2018-09-11T21:56:19.340Z,100822.03
2018-09-11T21:58:47.882Z,100819.59
2018-09-11T22:01:22.199Z,100825.80
2018-09-11T22:03:50.769Z,100825.88
2018-09-11T22:06:19.442Z,100824.58
2018-09-11T22:08:47.983Z,100823.08
2018-09-11T22:11:16.803Z,100818.42
2018-09-11T22:13:45.820Z,100823.27
2018-09-11T22:16:14.455Z,100811.16
2018-09-11T22:18:43.234Z,100808.73
2018-09-11T22:21:12.537Z,100812.45
2018-09-11T22:23:41.251Z,100807.59
2018-09-11T22:26:10.760Z,100804.40
2018-09-11T22:28:39.292Z,100805.42
2018-09-11T22:31:07.933Z,100804.19
2018-09-11T22:33:37.344Z,100798.62
2018-09-11T22:36:05.940Z,100797.48
2018-09-11T22:38:34.610Z,100795.81
2018-09-11T22:41:03.066Z,100797.08
2018-09-11T22:43:31.559Z,100791.30
2018-09-11T22:46:00.699Z,100801.80
2018-09-11T22:48:29.275Z,100793.89
2018-09-11T22:50:57.950Z,100795.63
2018-09-11T22:53:26.518Z,100794.75
2018-09-11T22:55:55.013Z,100798.27
2018-09-11T22:58:23.604Z,100793.79
2018-09-11T23:00:52.362Z,100795.36
2018-09-11T23:03:20.876Z,100790.77
2018-09-11T23:05:50.388Z,100788.56
2018-09-11T23:08:18.921Z,100788.35
2018-09-11T23:10:47.512Z,100792.62
2018-09-11T23:13:16.441Z,100793.17
2018-09-11T23:15:44.974Z,100788.69
2018-09-11T23:18:14.392Z,100790.61
2018-09-11T23:20:42.979Z,100788.20
2018-09-11T23:23:11.656Z,100788.89
2018-09-11T23:25:40.128Z,100788.60
2018-09-11T23:28:08.591Z,100786.19
2018-09-11T23:30:37.044Z,100788.39
2018-09-11T23:33:05.560Z,100779.83
2018-09-11T23:35:34.233Z,100787.42
2018-09-11T23:38:02.743Z,100781.09
2018-09-11T23:40:31.309Z,100780.70
2018-09-11T23:42:59.887Z,100787.39
2018-09-11T23:45:29.791Z,100779.01
2018-09-11T23:47:58.912Z,100792.16
2018-09-11T23:50:27.302Z,100784.53
2018-09-11T23:52:55.966Z,100786.38
2018-09-11T23:55:25.154Z,100787.06
2018-09-11T23:57:53.701Z,100792.27
